createdAt,value
2018-11-26T00:01:33.979Z,83.40
2018-11-26T00:04:04.434Z,82.43
2018-11-26T00:06:33.510Z,80.20
2018-11-26T00:09:02.959Z,79.87
2018-11-26T00:11:35.590Z,78.43
2018-11-26T00:14:04.999Z,77.87
2018-11-26T00:16:34.096Z,89.00
2018-11-26T00:19:03.434Z,81.50
2018-11-26T00:21:32.791Z,76.60
2018-11-26T00:24:02.079Z,88.13
2018-11-26T00:26:31.602Z,78.07
2018-11-26T00:29:00.791Z,82.93
2018-11-26T00:31:29.990Z,80.37
2018-11-26T00:34:00.318Z,81.23
2018-11-26T00:36:29.606Z,88.83
2018-11-26T00:38:58.718Z,84.17
2018-11-26T00:41:27.874Z,89.93
2018-11-26T00:43:57.011Z,97.20
2018-11-26T00:46:26.102Z,91.43
2018-11-26T00:48:55.462Z,98.83
2018-11-26T00:51:24.684Z,92.00
2018-11-26T00:53:53.987Z,93.93
2018-11-26T00:56:23.331Z,88.50
2018-11-26T00:58:52.589Z,88.40
2018-11-26T01:01:21.803Z,93.93
2018-11-26T01:03:51.134Z,93.57
2018-11-26T01:06:20.980Z,88.07
2018-11-26T01:08:49.605Z,93.50
2018-11-26T01:11:18.730Z,86.23
2018-11-26T01:13:47.773Z,88.27
2018-11-26T01:16:16.967Z,95.83
2018-11-26T01:18:46.293Z,94.13
2018-11-26T01:21:15.670Z,92.23
2018-11-26T01:23:44.969Z,94.60
2018-11-26T01:26:14.452Z,82.80
2018-11-26T01:28:43.586Z,83.40
2018-11-26T01:31:12.788Z,90.87
2018-11-26T01:33:42.028Z,88.03
2018-11-26T01:36:11.166Z,84.60
2018-11-26T01:38:40.470Z,83.23
2018-11-26T01:41:09.906Z,91.70
2018-11-26T01:43:39.070Z,87.73
2018-11-26T01:46:08.279Z,85.30
2018-11-26T01:48:37.467Z,90.90
2018-11-26T01:51:07.579Z,90.13
2018-11-26T01:53:36.990Z,88.70
2018-11-26T01:56:06.576Z,86.77
2018-11-26T01:58:35.787Z,88.97
2018-11-26T02:01:04.995Z,92.93
2018-11-26T02:03:34.370Z,89.87
2018-11-26T02:06:03.684Z,89.60
2018-11-26T02:08:32.990Z,84.23
2018-11-26T02:11:02.326Z,95.10
2018-11-26T02:13:31.497Z,91.60
2018-11-26T02:16:00.663Z,88.17
2018-11-26T02:18:29.876Z,89.73
2018-11-26T02:20:58.886Z,94.37
2018-11-26T02:23:28.085Z,103.60
2018-11-26T02:25:57.414Z,86.07
2018-11-26T02:28:27.085Z,92.93
2018-11-26T02:30:56.383Z,89.47
2018-11-26T02:33:25.918Z,87.03
2018-11-26T02:35:55.082Z,87.07
2018-11-26T02:38:24.198Z,92.87
2018-11-26T02:40:53.635Z,90.30
2018-11-26T02:43:22.781Z,95.10
2018-11-26T02:45:51.971Z,90.20
2018-11-26T02:48:21.235Z,96.67
2018-11-26T02:50:50.587Z,91.80
2018-11-26T02:53:19.682Z,92.53
2018-11-26T02:55:50.106Z,91.30
2018-11-26T02:58:19.294Z,90.93
2018-11-26T03:00:48.540Z,95.27
2018-11-26T03:03:17.805Z,93.07
2018-11-26T03:05:46.803Z,93.17
2018-11-26T03:08:15.942Z,98.57
2018-11-26T03:10:45.075Z,93.00
2018-11-26T03:13:14.167Z,99.93
2018-11-26T03:15:43.331Z,93.93
2018-11-26T03:18:12.466Z,91.63
2018-11-26T03:20:41.590Z,94.23
2018-11-26T03:23:11.024Z,87.20
2018-11-26T03:25:40.363Z,97.30
2018-11-26T03:28:09.573Z,95.20
2018-11-26T03:30:38.991Z,101.87
2018-11-26T03:33:08.175Z,103.87
2018-11-26T03:35:37.380Z,96.83
2018-11-26T03:38:06.782Z,92.03
2018-11-26T03:40:36.367Z,98.40
2018-11-26T03:43:05.719Z,93.30
2018-11-26T03:45:35.126Z,100.77
2018-11-26T03:48:04.402Z,105.50
2018-11-26T03:50:33.586Z,108.70
2018-11-26T03:53:03.198Z,129.47
2018-11-26T03:55:32.378Z,99.90
2018-11-26T03:58:01.575Z,102.50
2018-11-26T04:00:30.965Z,90.27
2018-11-26T04:03:00.140Z,95.90
2018-11-26T04:05:29.251Z,97.30
2018-11-26T04:07:58.478Z,94.73
2018-11-26T04:10:27.581Z,97.47
2018-11-26T04:12:56.874Z,91.40
2018-11-26T04:15:26.003Z,83.17
2018-11-26T04:17:55.261Z,87.00
2018-11-26T04:20:24.566Z,84.03
2018-11-26T04:22:54.827Z,100.43
2018-11-26T04:25:24.091Z,99.77
2018-11-26T04:27:53.387Z,96.47
2018-11-26T04:30:22.900Z,100.03
2018-11-26T04:32:52.202Z,101.17
2018-11-26T04:35:21.522Z,107.73
2018-11-26T04:37:50.663Z,106.27
2018-11-26T04:40:19.942Z,101.43
2018-11-26T04:42:50.090Z,98.37
2018-11-26T04:45:19.526Z,104.20
2018-11-26T04:47:48.651Z,111.23
2018-11-26T04:50:17.751Z,109.70
2018-11-26T04:52:47.220Z,93.80
2018-11-26T04:55:16.799Z,93.60
2018-11-26T04:57:45.995Z,92.73
2018-11-26T05:00:17.372Z,101.17
2018-11-26T05:02:46.594Z,98.93
2018-11-26T05:05:15.899Z,105.83
2018-11-26T05:07:45.518Z,100.70
2018-11-26T05:10:15.230Z,93.17
2018-11-26T05:12:44.409Z,98.33
2018-11-26T05:15:14.039Z,86.90
2018-11-26T05:17:43.129Z,90.73
2018-11-26T05:20:13.332Z,92.97
2018-11-26T05:22:42.747Z,98.43
2018-11-26T05:25:12.482Z,117.00
2018-11-26T05:27:41.625Z,99.63
2018-11-26T05:30:13.181Z,112.57
2018-11-26T05:32:42.518Z,97.47
2018-11-26T05:35:12.253Z,95.57
2018-11-26T05:37:41.640Z,94.90
2018-11-26T05:40:13.709Z,91.40
2018-11-26T05:42:43.559Z,99.13
2018-11-26T05:45:14.043Z,96.47
2018-11-26T05:47:43.280Z,104.33
2018-11-26T05:50:14.506Z,112.57
2018-11-26T05:52:43.664Z,94.87
2018-11-26T05:55:14.083Z,105.00
2018-11-26T05:57:43.492Z,97.50
2018-11-26T06:00:14.223Z,104.87
2018-11-26T06:02:43.442Z,99.20
2018-11-26T06:05:12.627Z,112.20
2018-11-26T06:07:41.799Z,112.43
2018-11-26T06:10:11.230Z,115.40
2018-11-26T06:12:40.298Z,105.07
2018-11-26T06:15:12.164Z,107.63
2018-11-26T06:17:41.646Z,107.13
2018-11-26T06:20:12.293Z,96.57
2018-11-26T06:22:42.551Z,97.27
2018-11-26T06:25:14.630Z,118.97
2018-11-26T06:27:43.946Z,89.80
2018-11-26T06:30:15.095Z,109.13
2018-11-26T06:32:44.563Z,101.77
2018-11-26T06:35:22.669Z,122.90
2018-11-26T06:37:51.769Z,134.60
2018-11-26T06:40:20.957Z,181.07
2018-11-26T06:42:50.393Z,174.80
2018-11-26T06:45:21.609Z,122.30
2018-11-26T06:47:50.932Z,153.20
2018-11-26T06:50:21.115Z,155.80
2018-11-26T06:52:51.069Z,147.10
2018-11-26T06:55:22.677Z,126.77
2018-11-26T06:57:52.449Z,113.23
2018-11-26T07:00:21.913Z,102.43
2018-11-26T07:02:51.419Z,101.37
2018-11-26T07:05:22.721Z,128.70
2018-11-26T07:07:52.262Z,112.03
2018-11-26T07:10:21.890Z,191.63
2018-11-26T07:12:51.061Z,146.20
2018-11-26T07:15:21.488Z,102.97
2018-11-26T07:17:50.949Z,163.00
2018-11-26T07:20:20.990Z,138.23
2018-11-26T07:22:50.279Z,137.73
2018-11-26T07:25:21.175Z,118.00
2018-11-26T07:27:54.354Z,134.57
2018-11-26T07:30:29.771Z,106.10
2018-11-26T07:33:01.536Z,132.90
2018-11-26T07:35:31.354Z,127.87
2018-11-26T07:38:00.554Z,144.53
2018-11-26T07:40:29.854Z,131.83
2018-11-26T07:43:18.214Z,140.93
2018-11-26T07:45:47.316Z,121.80
2018-11-26T07:48:16.388Z,131.27
2018-11-26T07:50:45.742Z,110.87
2018-11-26T07:53:14.883Z,107.57
2018-11-26T07:55:44.082Z,112.10
2018-11-26T07:58:13.814Z,111.37
2018-11-26T08:00:43.010Z,117.17
2018-11-26T08:03:12.207Z,123.60
2018-11-26T08:05:41.543Z,127.00
2018-11-26T08:08:10.894Z,115.37
2018-11-26T08:10:40.195Z,115.73
2018-11-26T08:13:09.479Z,118.47
2018-11-26T08:15:38.499Z,135.10
2018-11-26T08:18:07.783Z,116.57
2018-11-26T08:20:37.170Z,127.53
2018-11-26T08:23:06.898Z,133.43
2018-11-26T08:25:36.090Z,121.90
2018-11-26T08:28:05.708Z,124.87
2018-11-26T08:30:34.914Z,131.17
2018-11-26T08:33:04.118Z,133.80
2018-11-26T08:35:33.446Z,137.00
2018-11-26T08:38:09.149Z,115.53
2018-11-26T08:40:44.082Z,127.63
2018-11-26T08:43:18.207Z,122.00
2018-11-26T08:45:56.675Z,118.07
2018-11-26T08:48:29.698Z,110.67
2018-11-26T08:51:00.085Z,116.97
2018-11-26T08:53:29.209Z,115.77
2018-11-26T08:55:58.399Z,121.27
2018-11-26T08:58:27.744Z,119.17
2018-11-26T09:01:01.991Z,112.20
2018-11-26T09:03:36.906Z,110.13
2018-11-26T09:06:06.331Z,111.30
2018-11-26T09:08:37.603Z,112.20
2018-11-26T09:11:08.365Z,92.43
2018-11-26T09:13:37.582Z,107.07
2018-11-26T09:16:06.902Z,94.87
2018-11-26T09:18:36.099Z,93.73
2018-11-26T09:21:05.546Z,101.20
2018-11-26T09:23:34.834Z,109.90
2018-11-26T09:26:04.107Z,104.73
2018-11-26T09:28:33.625Z,95.30
2018-11-26T09:31:02.824Z,100.80
2018-11-26T09:33:31.973Z,100.10
2018-11-26T09:36:01.491Z,111.00
2018-11-26T09:38:30.566Z,112.57
2018-11-26T09:40:59.662Z,115.70
2018-11-26T09:43:29.145Z,112.93
2018-11-26T09:45:58.453Z,116.83
2018-11-26T09:48:27.727Z,105.33
2018-11-26T09:50:57.182Z,117.03
2018-11-26T09:53:26.339Z,101.27
2018-11-26T09:55:55.543Z,111.40
2018-11-26T09:58:24.910Z,113.50
2018-11-26T10:00:54.271Z,111.17
2018-11-26T10:03:23.549Z,103.60
2018-11-26T10:05:52.852Z,104.70
2018-11-26T10:08:22.139Z,112.03
2018-11-26T10:10:51.542Z,110.77
2018-11-26T10:13:20.735Z,122.30
2018-11-26T10:15:49.926Z,110.80
2018-11-26T10:18:19.102Z,118.13
2018-11-26T10:20:48.366Z,138.90
2018-11-26T10:23:17.474Z,115.73
2018-11-26T10:25:46.542Z,120.87
2018-11-26T10:28:15.859Z,106.40
2018-11-26T10:30:45.179Z,110.13
2018-11-26T10:33:15.039Z,117.67
2018-11-26T10:35:43.955Z,115.43
2018-11-26T10:38:13.187Z,125.73
2018-11-26T10:40:42.379Z,109.80
2018-11-26T10:43:11.860Z,132.37
2018-11-26T10:45:40.787Z,121.73
2018-11-26T10:48:09.994Z,130.23
2018-11-26T10:50:39.552Z,119.40
2018-11-26T10:53:08.838Z,117.50
2018-11-26T10:55:38.124Z,119.93
2018-11-26T10:58:08.074Z,121.53
2018-11-26T11:00:42.334Z,339.73
2018-11-26T11:03:11.861Z,481.93
2018-11-26T11:05:41.098Z,461.63
2018-11-26T11:08:10.375Z,212.07
2018-11-26T11:10:39.574Z,127.63
2018-11-26T11:13:08.979Z,118.07
2018-11-26T11:15:38.349Z,134.87
2018-11-26T11:18:08.445Z,123.83
2018-11-26T11:20:37.884Z,128.27
2018-11-26T11:23:08.482Z,155.43
2018-11-26T11:25:37.810Z,137.47
2018-11-26T11:28:07.328Z,135.93
2018-11-26T11:30:36.677Z,142.03
2018-11-26T11:35:34.819Z,145.07
2018-11-26T11:38:03.947Z,160.83
2018-11-26T11:40:33.220Z,154.63
2018-11-26T11:43:02.411Z,157.93
2018-11-26T11:45:33.024Z,157.33
2018-11-26T11:48:02.141Z,150.97
2018-11-26T11:50:31.232Z,190.50
2018-11-26T11:53:00.583Z,161.27
2018-11-26T11:55:29.932Z,154.90
2018-11-26T11:57:59.227Z,171.77
2018-11-26T12:00:40.709Z,170.87
2018-11-26T12:03:12.074Z,156.17
2018-11-26T12:05:41.680Z,172.63
2018-11-26T12:08:10.961Z,150.97
2018-11-26T12:10:40.173Z,156.67
2018-11-26T12:13:10.756Z,159.27
2018-11-26T12:15:41.336Z,147.53
2018-11-26T12:18:11.524Z,175.37
2018-11-26T12:20:40.751Z,155.37
2018-11-26T12:23:10.388Z,171.37
2018-11-26T12:25:39.952Z,174.57
2018-11-26T12:28:09.179Z,206.90
2018-11-26T12:30:39.940Z,187.00
2018-11-26T12:33:09.200Z,194.57
2018-11-26T12:35:38.393Z,174.87
2018-11-26T12:38:07.652Z,183.40
2018-11-26T12:40:36.992Z,173.67
2018-11-26T12:43:06.711Z,168.60
2018-11-26T12:45:36.107Z,167.80
2018-11-26T12:48:05.604Z,161.23
2018-11-26T12:50:34.867Z,155.67
2018-11-26T12:53:04.199Z,167.47
2018-11-26T12:55:33.491Z,175.63
2018-11-26T12:58:02.592Z,179.67
2018-11-26T13:00:31.924Z,170.97
2018-11-26T13:03:04.451Z,163.07
2018-11-26T13:05:33.967Z,171.53
2018-11-26T13:08:03.172Z,131.80
2018-11-26T13:10:32.463Z,184.77
2018-11-26T13:13:01.899Z,261.70
2018-11-26T13:15:31.167Z,239.00
2018-11-26T13:18:00.363Z,221.07
2018-11-26T13:20:30.469Z,269.93
2018-11-26T13:22:59.668Z,286.03
2018-11-26T13:25:30.072Z,172.00
2018-11-26T13:28:00.601Z,197.37
2018-11-26T13:30:34.127Z,174.83
2018-11-26T13:33:04.652Z,147.37
2018-11-26T13:35:33.747Z,151.17
2018-11-26T13:38:02.859Z,144.23
2018-11-26T13:40:32.200Z,183.80
2018-11-26T13:43:01.355Z,175.60
2018-11-26T13:45:34.376Z,163.73
2018-11-26T13:48:04.232Z,176.33
2018-11-26T13:50:34.957Z,153.73
2018-11-26T13:53:04.175Z,166.67
2018-11-26T13:55:33.472Z,151.53
2018-11-26T13:58:04.032Z,160.87
2018-11-26T14:00:33.301Z,174.53
2018-11-26T14:03:02.520Z,213.27
2018-11-26T14:05:31.638Z,168.77
2018-11-26T14:08:00.906Z,213.40
2018-11-26T14:10:30.108Z,164.40
2018-11-26T14:13:18.680Z,182.10
2018-11-26T14:15:47.792Z,165.53
2018-11-26T14:18:17.052Z,155.77
2018-11-26T14:20:46.212Z,167.43
2018-11-26T14:23:15.451Z,155.77
2018-11-26T14:25:44.563Z,148.00
2018-11-26T14:28:13.948Z,150.73
2018-11-26T14:30:43.221Z,168.57
2018-11-26T14:33:12.460Z,170.70
2018-11-26T14:35:41.914Z,183.90
2018-11-26T14:38:13.399Z,234.07
2018-11-26T14:40:49.972Z,207.53
2018-11-26T14:43:19.276Z,176.43
2018-11-26T14:45:48.656Z,211.80
2018-11-26T14:48:18.120Z,197.50
2018-11-26T14:50:47.292Z,158.03
2018-11-26T14:53:18.018Z,189.77
2018-11-26T14:55:47.112Z,229.27
2018-11-26T14:58:16.260Z,174.67
2018-11-26T15:00:45.809Z,165.73
2018-11-26T15:03:15.163Z,178.50
2018-11-26T15:05:44.679Z,153.17
2018-11-26T15:08:14.909Z,242.43
2018-11-26T15:10:43.985Z,175.13
2018-11-26T15:13:13.205Z,163.50
2018-11-26T15:15:42.416Z,151.33
2018-11-26T15:18:11.590Z,157.53
2018-11-26T15:20:40.791Z,152.30
2018-11-26T15:23:10.131Z,149.13
2018-11-26T15:25:39.276Z,158.87
2018-11-26T15:28:11.007Z,160.23
2018-11-26T15:30:40.112Z,296.13
2018-11-26T15:33:09.491Z,181.20
2018-11-26T15:35:38.638Z,250.63
2018-11-26T15:38:07.963Z,170.57
2018-11-26T15:40:37.232Z,147.90
2018-11-26T15:43:07.503Z,151.90
2018-11-26T15:45:36.964Z,165.30
2018-11-26T15:48:08.813Z,234.57
2018-11-26T15:50:38.134Z,191.43
2018-11-26T15:53:08.144Z,135.10
2018-11-26T15:55:37.885Z,137.23
2018-11-26T15:58:08.169Z,234.83
2018-11-26T16:00:37.441Z,202.13
2018-11-26T16:03:07.335Z,232.60
2018-11-26T16:05:36.768Z,224.00
2018-11-26T16:08:09.092Z,197.23
2018-11-26T16:10:38.520Z,218.23
2018-11-26T16:13:08.764Z,155.73
2018-11-26T16:15:40.408Z,130.80
2018-11-26T16:18:11.849Z,141.17
2018-11-26T16:20:41.431Z,210.53
2018-11-26T16:23:11.089Z,272.27
2018-11-26T16:25:42.768Z,227.37
2018-11-26T16:28:13.631Z,206.90
2018-11-26T16:30:42.696Z,262.13
2018-11-26T16:33:12.232Z,199.40
2018-11-26T16:35:42.107Z,185.47
2018-11-26T16:38:11.799Z,159.07
2018-11-26T16:40:40.832Z,199.63
2018-11-26T16:43:10.345Z,171.50
2018-11-26T16:45:39.511Z,373.83
2018-11-26T16:48:08.679Z,287.63
2018-11-26T16:50:38.447Z,161.30
2018-11-26T16:53:08.331Z,128.67
2018-11-26T16:55:37.615Z,143.50
2018-11-26T16:58:06.877Z,133.40
2018-11-26T17:00:36.169Z,139.60
2018-11-26T17:03:05.471Z,130.23
2018-11-26T17:05:40.414Z,151.20
2018-11-26T17:08:13.549Z,325.70
2018-11-26T17:10:43.252Z,221.07
2018-11-26T17:13:13.444Z,147.07
2018-11-26T17:15:43.135Z,118.47
2018-11-26T17:18:12.442Z,110.40
2018-11-26T17:20:41.737Z,99.40
2018-11-26T17:23:11.256Z,219.87
2018-11-26T17:25:40.631Z,142.70
2018-11-26T17:28:09.938Z,114.10
2018-11-26T17:30:40.894Z,145.23
2018-11-26T17:33:11.120Z,176.00
2018-11-26T17:35:40.394Z,161.73
2018-11-26T17:38:09.848Z,180.10
2018-11-26T17:40:40.121Z,165.60
2018-11-26T17:43:10.827Z,240.07
2018-11-26T17:45:40.045Z,186.13
2018-11-26T17:48:09.244Z,193.77
2018-11-26T17:50:40.700Z,205.57
2018-11-26T17:53:11.667Z,200.70
2018-11-26T17:55:46.913Z,189.57
2018-11-26T17:58:16.296Z,223.60
2018-11-26T18:00:47.071Z,205.50
2018-11-26T18:03:16.247Z,187.17
2018-11-26T18:05:45.289Z,165.20
2018-11-26T18:08:16.904Z,156.53
2018-11-26T18:10:46.359Z,132.07
2018-11-26T18:13:15.455Z,152.77
2018-11-26T18:15:45.228Z,197.87
2018-11-26T18:18:15.887Z,154.93
2018-11-26T18:20:45.520Z,220.27
2018-11-26T18:23:14.896Z,214.73
2018-11-26T18:25:45.662Z,211.93
2018-11-26T18:28:16.274Z,184.33
2018-11-26T18:30:47.236Z,125.67
2018-11-26T18:33:17.014Z,141.00
2018-11-26T18:35:47.165Z,132.87
2018-11-26T18:38:16.838Z,199.67
2018-11-26T18:40:48.683Z,194.83
2018-11-26T18:43:18.736Z,172.40
2018-11-26T18:45:48.562Z,434.47
2018-11-26T18:48:20.895Z,164.93
2018-11-26T18:50:52.068Z,222.83
2018-11-26T18:53:22.365Z,248.57
2018-11-26T18:55:52.016Z,196.27
2018-11-26T18:58:21.884Z,245.00
2018-11-26T19:00:53.952Z,324.07
2018-11-26T19:03:24.272Z,312.50
2018-11-26T19:06:00.089Z,154.73
2018-11-26T19:08:29.558Z,138.87
2018-11-26T19:11:01.709Z,146.80
2018-11-26T19:13:34.520Z,212.43
2018-11-26T19:16:11.884Z,210.67
2018-11-26T19:18:41.073Z,175.50
2018-11-26T19:21:10.393Z,151.73
2018-11-26T19:23:40.095Z,191.43
2018-11-26T19:26:09.400Z,134.37
2018-11-26T19:28:38.894Z,116.00
2018-11-26T19:31:08.340Z,107.50
2018-11-26T19:33:37.878Z,117.10
2018-11-26T19:36:08.689Z,279.87
2018-11-26T19:38:39.192Z,162.03
2018-11-26T19:41:09.974Z,143.20
2018-11-26T19:43:39.236Z,125.70
2018-11-26T19:46:08.431Z,122.90
2018-11-26T19:48:37.848Z,112.33
2018-11-26T19:51:07.544Z,115.17
2018-11-26T19:53:36.792Z,228.53
2018-11-26T19:56:06.496Z,150.97
2018-11-26T19:58:35.647Z,167.97
2018-11-26T20:01:05.660Z,124.43
2018-11-26T20:03:41.725Z,141.10
2018-11-26T20:06:15.276Z,148.03
2018-11-26T20:08:46.000Z,120.43
2018-11-26T20:11:32.987Z,110.70
2018-11-26T20:13:57.059Z,98.57
2018-11-26T20:16:37.216Z,125.03
2018-11-26T20:19:07.224Z,123.57
2018-11-26T20:21:36.657Z,126.03
2018-11-26T20:24:06.988Z,119.70
2018-11-26T20:26:36.221Z,131.93
2018-11-26T20:29:05.728Z,151.20
2018-11-26T20:31:35.319Z,156.47
2018-11-26T20:34:04.828Z,148.80
2018-11-26T20:36:33.935Z,177.37
2018-11-26T20:39:03.706Z,155.13
2018-11-26T20:41:33.039Z,143.33
2018-11-26T20:44:02.356Z,144.50
2018-11-26T20:46:31.796Z,152.00
2018-11-26T20:49:01.182Z,151.50
2018-11-26T20:51:30.367Z,155.60
2018-11-26T20:53:59.888Z,170.37
2018-11-26T20:56:29.136Z,197.00
2018-11-26T20:58:58.287Z,146.50
2018-11-26T21:01:27.938Z,130.90
2018-11-26T21:03:57.447Z,327.33
2018-11-26T21:06:26.954Z,348.67
2018-11-26T21:08:56.840Z,286.60
2018-11-26T21:11:26.328Z,305.07
2018-11-26T21:13:56.003Z,153.63
2018-11-26T21:16:25.594Z,189.13
2018-11-26T21:18:55.220Z,150.80
2018-11-26T21:21:24.772Z,276.10
2018-11-26T21:23:54.308Z,216.27
2018-11-26T21:26:23.842Z,192.33
2018-11-26T21:28:54.332Z,128.13
2018-11-26T21:31:23.897Z,105.03
2018-11-26T21:33:53.454Z,95.47
2018-11-26T21:36:23.108Z,98.77
2018-11-26T21:38:52.520Z,97.40
2018-11-26T21:41:22.115Z,111.07
2018-11-26T21:43:51.895Z,114.30
2018-11-26T21:46:21.373Z,101.43
2018-11-26T21:48:50.840Z,147.27
2018-11-26T21:51:20.472Z,93.70
2018-11-26T21:53:49.957Z,105.57
2018-11-26T21:56:19.531Z,90.57
2018-11-26T21:58:49.290Z,98.97
2018-11-26T22:01:18.760Z,113.07
2018-11-26T22:03:48.169Z,94.23
2018-11-26T22:06:18.155Z,98.30
2018-11-26T22:08:47.572Z,111.90
2018-11-26T22:11:17.335Z,165.47
2018-11-26T22:13:46.752Z,124.50
2018-11-26T22:16:16.253Z,143.77
2018-11-26T22:18:46.007Z,142.07
2018-11-26T22:21:15.517Z,141.73
2018-11-26T22:23:45.761Z,161.30
2018-11-26T22:26:15.444Z,88.40
2018-11-26T22:28:45.004Z,118.37
2018-11-26T22:31:14.479Z,115.63
2018-11-26T22:33:44.231Z,133.83
2018-11-26T22:36:13.741Z,126.67
2018-11-26T22:38:43.608Z,119.93
2018-11-26T22:41:13.004Z,101.77
2018-11-26T22:43:42.088Z,97.37
2018-11-26T22:46:15.880Z,109.60
2018-11-26T22:48:40.820Z,93.60
2018-11-26T22:51:10.168Z,100.47
2018-11-26T22:53:39.464Z,103.73
2018-11-26T22:56:08.828Z,89.83
2018-11-26T22:58:38.195Z,92.23
2018-11-26T23:01:07.851Z,83.07
2018-11-26T23:03:37.312Z,85.00
2018-11-26T23:06:06.695Z,78.67
2018-11-26T23:08:35.886Z,86.17
2018-11-26T23:11:05.200Z,76.47
2018-11-26T23:13:34.385Z,79.47
2018-11-26T23:16:03.675Z,78.90
2018-11-26T23:18:33.048Z,85.77
2018-11-26T23:21:02.381Z,79.60
2018-11-26T23:23:31.452Z,72.70
2018-11-26T23:26:00.647Z,76.97
2018-11-26T23:28:30.073Z,73.27
2018-11-26T23:30:59.602Z,75.00
2018-11-26T23:33:29.032Z,81.23
2018-11-26T23:35:58.352Z,76.53
2018-11-26T23:38:28.432Z,78.83
2018-11-26T23:40:57.799Z,79.37
2018-11-26T23:43:27.132Z,74.40
2018-11-26T23:45:57.150Z,74.63
2018-11-26T23:48:26.458Z,86.67
2018-11-26T23:50:55.719Z,84.67
2018-11-26T23:53:25.268Z,84.10
2018-11-26T23:55:54.548Z,90.97
2018-11-26T23:58:23.648Z,84.10
